createdAt,value
2023-04-04T00:00:44.488Z,2.03
2023-04-04T00:03:17.210Z,2.30
2023-04-04T00:05:48.291Z,2.10
2023-04-04T00:08:18.253Z,2.10
2023-04-04T00:10:48.274Z,2.03
2023-04-04T00:13:18.514Z,1.97
2023-04-04T00:15:48.655Z,1.80
2023-04-04T00:18:22.005Z,2.10
2023-04-04T00:20:51.874Z,2.50
2023-04-04T00:23:21.735Z,2.30
2023-04-04T00:25:55.190Z,2.20
2023-04-04T00:28:25.280Z,2.07
2023-04-04T00:30:55.274Z,2.37
2023-04-04T00:33:28.075Z,1.60
2023-04-04T00:35:58.259Z,2.30
2023-04-04T00:38:29.901Z,2.57
2023-04-04T00:41:00.701Z,1.80
2023-04-04T00:43:31.030Z,2.40
2023-04-04T00:46:01.158Z,2.00
2023-04-04T00:48:34.729Z,2.07
2023-04-04T00:51:04.682Z,2.50
2023-04-04T00:53:34.930Z,2.50
2023-04-04T00:56:05.215Z,2.43
2023-04-04T00:58:35.495Z,2.50
2023-04-04T01:01:05.512Z,2.47
2023-04-04T01:03:39.909Z,2.40
2023-04-04T01:06:11.509Z,2.03
2023-04-04T01:08:42.667Z,2.37
2023-04-04T01:11:13.651Z,2.30
2023-04-04T01:13:43.707Z,2.90
2023-04-04T01:16:13.724Z,2.53
2023-04-04T01:18:47.510Z,2.70
2023-04-04T01:21:22.033Z,2.53
2023-04-04T01:24:00.145Z,2.63
2023-04-04T01:26:33.550Z,2.80
2023-04-04T01:29:03.493Z,2.50
2023-04-04T01:31:40.847Z,2.60
2023-04-04T01:34:18.999Z,2.50
2023-04-04T01:36:55.040Z,2.97
2023-04-04T01:39:30.986Z,2.20
2023-04-04T01:42:06.371Z,2.50
2023-04-04T01:44:36.642Z,2.50
2023-04-04T01:47:09.889Z,3.13
2023-04-04T01:49:39.901Z,2.73
2023-04-04T01:52:10.170Z,2.87
2023-04-04T01:54:40.085Z,2.77
2023-04-04T01:57:13.109Z,2.83
2023-04-04T01:59:43.101Z,2.77
2023-04-04T02:02:13.530Z,2.80
2023-04-04T02:04:43.552Z,3.27
2023-04-04T02:07:13.558Z,2.77
2023-04-04T02:09:43.814Z,3.00
2023-04-04T02:12:16.440Z,2.60
2023-04-04T02:14:46.749Z,3.00
2023-04-04T02:17:17.130Z,2.90
2023-04-04T02:19:47.176Z,2.90
2023-04-04T02:22:17.145Z,2.83
2023-04-04T02:24:47.027Z,2.97
2023-04-04T02:27:19.648Z,3.33
2023-04-04T02:29:49.496Z,2.40
2023-04-04T02:32:19.656Z,3.30
2023-04-04T02:34:49.503Z,2.83
2023-04-04T02:37:19.481Z,2.80
2023-04-04T02:39:49.669Z,2.80
2023-04-04T02:42:22.311Z,2.60
2023-04-04T02:44:52.301Z,2.83
2023-04-04T02:47:23.387Z,2.40
2023-04-04T02:49:53.376Z,2.73
2023-04-04T02:52:24.322Z,3.30
2023-04-04T02:54:54.688Z,2.97
2023-04-04T02:57:27.564Z,2.87
2023-04-04T02:59:57.567Z,3.17
2023-04-04T03:02:28.066Z,3.07
2023-04-04T03:04:58.184Z,3.10
2023-04-04T03:07:28.081Z,3.30
2023-04-04T03:10:02.548Z,3.43
2023-04-04T03:12:34.966Z,2.93
2023-04-04T03:15:05.695Z,3.70
2023-04-04T03:17:35.583Z,3.00
2023-04-04T03:20:05.467Z,3.20
2023-04-04T03:22:35.488Z,3.20
2023-04-04T03:25:05.396Z,3.10
2023-04-04T03:27:40.083Z,3.10
2023-04-04T03:30:11.697Z,3.60
2023-04-04T03:32:42.383Z,2.90
2023-04-04T03:35:13.279Z,3.47
2023-04-04T03:37:43.472Z,3.20
2023-04-04T03:40:14.574Z,3.33
2023-04-04T03:42:47.387Z,3.63
2023-04-04T03:45:17.400Z,3.67
2023-04-04T03:47:47.531Z,3.37
2023-04-04T03:50:17.585Z,3.83
2023-04-04T03:52:47.732Z,3.40
2023-04-04T03:55:17.918Z,3.40
2023-04-04T03:57:50.531Z,3.43
2023-04-04T04:00:20.909Z,3.07
2023-04-04T04:02:50.865Z,3.40
2023-04-04T04:05:20.909Z,3.47
2023-04-04T04:07:50.757Z,3.30
2023-04-04T04:10:20.805Z,2.87
2023-04-04T04:12:53.311Z,3.67
2023-04-04T04:15:23.228Z,3.30
2023-04-04T04:17:53.809Z,2.73
2023-04-04T04:20:23.751Z,3.27
2023-04-04T04:22:54.197Z,3.77
2023-04-04T04:25:24.590Z,3.23
2023-04-04T04:27:58.747Z,3.07
2023-04-04T04:30:28.905Z,3.60
2023-04-04T04:32:59.212Z,3.17
2023-04-04T04:35:29.182Z,3.67
2023-04-04T04:37:59.447Z,4.23
2023-04-04T04:40:29.476Z,3.20
2023-04-04T04:43:03.054Z,3.97
2023-04-04T04:45:33.353Z,3.57
2023-04-04T04:48:03.404Z,3.10
2023-04-04T04:50:33.640Z,3.90
2023-04-04T04:53:05.187Z,3.80
2023-04-04T04:55:35.083Z,4.10
2023-04-04T04:58:07.750Z,3.47
2023-04-04T05:00:38.416Z,3.47
2023-04-04T05:03:09.777Z,3.67
2023-04-04T05:05:39.868Z,3.90
2023-04-04T05:08:09.892Z,3.70
2023-04-04T05:10:40.373Z,4.10
2023-04-04T05:13:14.168Z,3.47
2023-04-04T05:15:44.162Z,3.40
2023-04-04T05:18:13.972Z,3.63
2023-04-04T05:20:46.929Z,3.60
2023-04-04T05:23:17.399Z,3.73
2023-04-04T05:25:47.458Z,3.50
2023-04-04T05:28:19.988Z,3.50
2023-04-04T05:30:50.425Z,3.93
2023-04-04T05:33:20.292Z,3.50
2023-04-04T05:35:50.475Z,4.30
2023-04-04T05:38:20.638Z,3.80
2023-04-04T05:40:50.726Z,3.63
2023-04-04T05:43:23.226Z,3.67
2023-04-04T05:45:53.250Z,3.70
2023-04-04T05:48:23.599Z,3.47
2023-04-04T05:50:53.499Z,4.17
2023-04-04T05:53:23.861Z,4.13
2023-04-04T05:55:55.763Z,3.00
2023-04-04T05:58:28.226Z,3.87
2023-04-04T06:01:00.263Z,3.67
2023-04-04T06:03:31.176Z,3.70
2023-04-04T06:06:01.403Z,4.10
2023-04-04T06:08:35.374Z,4.10
2023-04-04T06:11:10.356Z,4.47
2023-04-04T06:13:42.913Z,4.33
2023-04-04T06:16:13.026Z,4.10
2023-04-04T06:18:42.948Z,3.93
2023-04-04T06:21:13.533Z,4.93
2023-04-04T06:23:44.105Z,4.67
2023-04-04T06:26:15.119Z,4.57
2023-04-04T06:28:53.075Z,4.77
2023-04-04T06:31:23.447Z,4.57
2023-04-04T06:33:53.487Z,4.27
2023-04-04T06:36:23.537Z,4.90
2023-04-04T06:38:54.301Z,4.83
2023-04-04T06:41:24.176Z,4.10
2023-04-04T06:43:56.830Z,5.13
2023-04-04T06:46:27.402Z,4.70
2023-04-04T06:48:58.173Z,4.50
2023-04-04T06:51:28.852Z,4.23
2023-04-04T06:53:59.470Z,4.07
2023-04-04T06:56:30.030Z,4.30
2023-04-04T06:59:06.113Z,4.43
2023-04-04T07:01:38.264Z,4.57
2023-04-04T07:04:08.249Z,4.30
2023-04-04T07:06:38.230Z,5.00
2023-04-04T07:09:15.372Z,4.63
2023-04-04T07:11:55.146Z,4.10
2023-04-04T07:14:27.682Z,4.23
2023-04-04T07:16:58.541Z,4.27
2023-04-04T07:19:29.106Z,4.27
2023-04-04T07:22:00.455Z,4.43
2023-04-04T07:24:30.650Z,4.03
2023-04-04T07:27:00.529Z,4.03
2023-04-04T07:29:32.924Z,3.90
2023-04-04T07:32:03.269Z,3.70
2023-04-04T07:34:35.207Z,4.13
2023-04-04T07:37:05.115Z,3.03
2023-04-04T07:39:35.112Z,3.70
2023-04-04T07:42:05.013Z,3.60
2023-04-04T07:44:37.612Z,3.13
2023-04-04T07:47:10.343Z,3.70
2023-04-04T07:49:40.694Z,3.17
2023-04-04T07:52:10.928Z,3.17
2023-04-04T07:54:40.941Z,3.20
2023-04-04T07:57:10.929Z,3.93
2023-04-04T07:59:43.453Z,4.10
2023-04-04T08:02:13.384Z,3.30
2023-04-04T08:04:43.614Z,3.17
2023-04-04T08:07:13.646Z,2.43
2023-04-04T08:09:43.833Z,2.60
2023-04-04T08:12:13.878Z,3.53
2023-04-04T08:14:46.829Z,2.60
2023-04-04T08:17:19.189Z,1.70
2023-04-04T08:19:49.500Z,1.77
2023-04-04T08:22:22.563Z,2.00
2023-04-04T08:24:52.588Z,1.90
2023-04-04T08:27:22.481Z,1.77
2023-04-04T08:29:55.075Z,1.87
2023-04-04T08:32:25.341Z,2.10
2023-04-04T08:34:55.561Z,1.70
2023-04-04T08:37:25.618Z,1.90
2023-04-04T08:39:55.610Z,2.00
2023-04-04T08:42:27.805Z,1.80
2023-04-04T08:45:02.681Z,2.27
2023-04-04T08:47:37.794Z,2.20
2023-04-04T08:50:13.465Z,1.97
2023-04-04T08:52:45.084Z,2.10
2023-04-04T08:55:16.153Z,2.03
2023-04-04T08:57:47.103Z,2.20
2023-04-04T09:00:21.798Z,2.30
2023-04-04T09:02:58.631Z,1.83
2023-04-04T09:05:29.393Z,1.73
2023-04-04T09:07:59.607Z,1.67
2023-04-04T09:10:30.048Z,2.50
2023-04-04T09:13:12.489Z,2.13
2023-04-04T09:15:51.453Z,2.40
2023-04-04T09:18:21.772Z,1.90
2023-04-04T09:20:53.040Z,1.83
2023-04-04T09:23:24.357Z,1.90
2023-04-04T09:26:03.677Z,2.27
2023-04-04T09:28:35.325Z,2.07
2023-04-04T09:31:11.653Z,1.60
2023-04-04T09:33:42.110Z,1.50
2023-04-04T09:36:18.275Z,2.00
2023-04-04T09:38:49.094Z,2.17
2023-04-04T09:41:21.663Z,1.73
2023-04-04T09:43:51.758Z,1.80
2023-04-04T09:46:26.582Z,1.70
2023-04-04T09:48:57.623Z,2.20
2023-04-04T09:51:27.697Z,1.90
2023-04-04T09:53:57.844Z,1.50
2023-04-04T09:56:27.881Z,2.10
2023-04-04T09:59:04.116Z,2.10
2023-04-04T10:01:37.783Z,1.83
2023-04-04T10:04:08.973Z,1.90
2023-04-04T10:06:39.983Z,1.50
2023-04-04T10:09:11.253Z,1.63
2023-04-04T10:11:41.164Z,1.63
2023-04-04T10:14:12.612Z,1.93
2023-04-04T10:16:48.856Z,1.73
2023-04-04T10:19:20.249Z,1.73
2023-04-04T10:21:51.306Z,1.43
2023-04-04T10:24:22.265Z,2.17
2023-04-04T10:26:53.582Z,1.73
2023-04-04T10:29:23.435Z,1.73
2023-04-04T10:32:03.598Z,1.67
2023-04-04T10:34:39.194Z,1.80
2023-04-04T10:37:13.123Z,1.57
2023-04-04T10:39:49.435Z,1.73
2023-04-04T10:42:22.227Z,1.63
2023-04-04T10:44:54.075Z,1.60
2023-04-04T10:47:29.712Z,1.80
2023-04-04T10:50:00.471Z,1.70
2023-04-04T10:52:34.101Z,1.80
2023-04-04T10:55:07.802Z,1.70
2023-04-04T10:57:42.211Z,1.70
2023-04-04T11:00:14.766Z,1.70
2023-04-04T11:02:57.037Z,1.77
2023-04-04T11:05:29.022Z,1.70
2023-04-04T11:08:07.717Z,1.90
2023-04-04T11:10:39.997Z,1.97
2023-04-04T11:13:14.517Z,2.00
2023-04-04T11:15:59.064Z,1.90
2023-04-04T11:18:51.083Z,1.90
2023-04-04T11:21:24.269Z,2.03
2023-04-04T11:24:19.270Z,2.00
2023-04-04T11:26:50.008Z,1.70
2023-04-04T11:29:56.089Z,1.50
2023-04-04T11:32:59.793Z,1.80
2023-04-04T11:35:37.390Z,1.77
2023-04-04T11:38:07.654Z,1.77
2023-04-04T11:40:39.336Z,2.13
2023-04-04T11:43:14.027Z,1.80
2023-04-04T11:45:48.300Z,2.10
2023-04-04T11:48:20.607Z,2.30
2023-04-04T11:50:53.220Z,1.77
2023-04-04T11:53:23.163Z,1.80
2023-04-04T11:55:56.860Z,2.00
2023-04-04T11:58:27.137Z,1.97
2023-04-04T12:00:57.122Z,1.57
2023-04-04T12:03:27.061Z,1.80
2023-04-04T12:06:00.652Z,1.93
2023-04-04T12:08:31.853Z,1.73
2023-04-04T12:11:07.482Z,1.90
2023-04-04T12:13:37.520Z,2.07
2023-04-04T12:16:08.285Z,1.73
2023-04-04T12:18:38.144Z,2.10
2023-04-04T12:21:10.877Z,1.90
2023-04-04T12:23:40.894Z,1.90
2023-04-04T12:26:11.668Z,2.23
2023-04-04T12:28:42.424Z,1.90
2023-04-04T12:31:12.805Z,1.67
2023-04-04T12:33:44.508Z,2.00
2023-04-04T12:36:17.283Z,2.03
2023-04-04T12:39:01.164Z,1.87
2023-04-04T12:41:31.814Z,2.03
2023-04-04T12:44:05.813Z,2.00
2023-04-04T12:46:40.038Z,1.90
2023-04-04T12:49:11.187Z,1.80
2023-04-04T12:51:44.275Z,1.80
2023-04-04T12:54:29.322Z,1.73
2023-04-04T12:57:00.072Z,1.67
2023-04-04T12:59:32.426Z,2.07
2023-04-04T13:02:04.105Z,1.80
2023-04-04T13:04:35.182Z,1.87
2023-04-04T13:07:07.796Z,2.43
2023-04-04T13:09:37.912Z,2.10
2023-04-04T13:12:10.322Z,2.17
2023-04-04T13:15:06.937Z,1.90
2023-04-04T13:17:46.270Z,1.90
2023-04-04T13:20:17.848Z,2.03
2023-04-04T13:22:50.613Z,1.80
2023-04-04T13:25:20.537Z,1.80
2023-04-04T13:27:50.745Z,2.07
2023-04-04T13:30:20.798Z,2.20
2023-04-04T13:32:50.963Z,2.13
2023-04-04T13:35:21.269Z,2.07
2023-04-04T13:37:54.097Z,2.40
2023-04-04T13:40:24.084Z,2.13
2023-04-04T13:42:54.236Z,2.33
2023-04-04T13:45:24.408Z,2.40
2023-04-04T13:47:54.464Z,2.30
2023-04-04T13:50:24.484Z,2.70
2023-04-04T13:52:57.039Z,2.50
2023-04-04T13:55:27.009Z,2.00
2023-04-04T13:57:57.041Z,2.60
2023-04-04T14:00:28.757Z,2.10
2023-04-04T14:02:59.461Z,2.03
2023-04-04T14:05:29.606Z,2.03
2023-04-04T14:08:02.625Z,2.00
2023-04-04T14:10:32.812Z,2.17
2023-04-04T14:13:02.718Z,2.47
2023-04-04T14:15:33.472Z,1.93
2023-04-04T14:18:03.581Z,2.13
2023-04-04T14:20:34.709Z,2.40
2023-04-04T14:23:12.160Z,1.93
2023-04-04T14:25:43.210Z,2.13
2023-04-04T14:28:13.288Z,2.30
2023-04-04T14:30:43.243Z,2.53
2023-04-04T14:33:13.346Z,2.20
2023-04-04T14:35:43.766Z,2.40
2023-04-04T14:38:16.661Z,2.17
2023-04-04T14:40:46.568Z,2.57
2023-04-04T14:43:19.097Z,2.33
2023-04-04T14:45:49.044Z,2.50
2023-04-04T14:48:18.941Z,2.60
2023-04-04T14:50:49.718Z,2.43
2023-04-04T14:53:23.051Z,2.50
2023-04-04T14:55:55.906Z,2.40
2023-04-04T14:58:28.642Z,2.13
2023-04-04T15:00:58.756Z,2.50
2023-04-04T15:03:29.346Z,2.30
2023-04-04T15:05:59.662Z,2.40
2023-04-04T15:08:32.411Z,2.23
2023-04-04T15:11:03.831Z,2.50
2023-04-04T15:13:33.728Z,2.80
2023-04-04T15:16:04.496Z,2.57
2023-04-04T15:18:34.472Z,2.67
2023-04-04T15:21:04.495Z,2.40
2023-04-04T15:23:37.161Z,2.47
2023-04-04T15:26:07.203Z,2.70
2023-04-04T15:28:37.295Z,2.23
2023-04-04T15:31:08.465Z,2.10
2023-04-04T15:33:38.685Z,2.47
2023-04-04T15:36:08.961Z,2.60
2023-04-04T15:38:42.411Z,2.53
2023-04-04T15:41:13.279Z,3.17
2023-04-04T15:43:43.097Z,2.53
2023-04-04T15:46:13.456Z,2.50
2023-04-04T15:48:43.468Z,2.50
2023-04-04T15:51:13.475Z,2.60
2023-04-04T15:53:46.106Z,2.50
2023-04-04T15:56:16.866Z,3.00
2023-04-04T15:58:46.794Z,2.87
2023-04-04T16:01:16.953Z,2.40
2023-04-04T16:03:47.251Z,3.10
2023-04-04T16:06:17.133Z,2.60
2023-04-04T16:08:49.754Z,2.70
2023-04-04T16:11:22.030Z,2.13
2023-04-04T16:13:51.988Z,2.50
2023-04-04T16:16:21.961Z,2.30
2023-04-04T16:18:51.952Z,2.67
2023-04-04T16:21:21.915Z,2.47
2023-04-04T16:23:55.783Z,2.70
2023-04-04T16:26:25.810Z,2.50
2023-04-04T16:28:55.984Z,2.50
2023-04-04T16:31:25.946Z,2.73
2023-04-04T16:33:55.853Z,2.90
2023-04-04T16:36:26.081Z,2.27
2023-04-04T16:38:59.604Z,2.57
2023-04-04T16:41:29.883Z,2.50
2023-04-04T16:43:59.887Z,2.40
2023-04-04T16:46:30.427Z,2.53
2023-04-04T16:49:00.572Z,2.60
2023-04-04T16:51:32.231Z,4.13
2023-04-04T16:54:04.698Z,6.03
2023-04-04T16:56:34.598Z,4.30
2023-04-04T16:59:04.500Z,7.53
2023-04-04T17:01:34.673Z,3.87
2023-04-04T17:04:04.941Z,3.33
2023-04-04T17:06:34.861Z,2.60
2023-04-04T17:09:08.246Z,2.87
2023-04-04T17:11:39.709Z,2.70
2023-04-04T17:14:09.896Z,2.57
2023-04-04T17:16:40.007Z,2.20
2023-04-04T17:19:09.832Z,2.87
2023-04-04T17:21:39.675Z,2.37
2023-04-04T17:24:12.243Z,2.50
2023-04-04T17:26:42.249Z,2.67
2023-04-04T17:29:12.108Z,2.63
2023-04-04T17:31:43.623Z,2.67
2023-04-04T17:34:15.246Z,2.67
2023-04-04T17:36:45.253Z,2.57
2023-04-04T17:39:17.964Z,2.87
2023-04-04T17:41:48.640Z,2.70
2023-04-04T17:44:18.940Z,2.87
2023-04-04T17:46:49.064Z,2.63
2023-04-04T17:49:20.498Z,2.70
2023-04-04T17:51:51.010Z,3.20
2023-04-04T17:54:23.972Z,2.50
2023-04-04T17:56:54.058Z,2.90
2023-04-04T17:59:24.542Z,2.83
2023-04-04T18:01:54.465Z,2.53
2023-04-04T18:04:28.390Z,2.30
2023-04-04T18:06:58.248Z,2.13
2023-04-04T18:09:31.420Z,2.70
2023-04-04T18:12:02.714Z,2.70
2023-04-04T18:14:32.770Z,2.13
2023-04-04T18:17:02.738Z,2.77
2023-04-04T18:19:32.718Z,2.63
2023-04-04T18:22:02.886Z,2.70
2023-04-04T18:24:35.330Z,2.67
2023-04-04T18:27:05.343Z,2.67
2023-04-04T18:29:35.319Z,2.80
2023-04-04T18:32:05.319Z,2.80
2023-04-04T18:34:36.411Z,3.10
2023-04-04T18:37:06.888Z,3.20
2023-04-04T18:39:39.629Z,2.70
2023-04-04T18:42:10.784Z,2.43
2023-04-04T18:44:40.820Z,2.63
2023-04-04T18:47:11.982Z,2.43
2023-04-04T18:49:42.199Z,2.50
2023-04-04T18:52:12.185Z,2.90
2023-04-04T18:54:45.280Z,2.63
2023-04-04T18:57:16.586Z,2.40
2023-04-04T18:59:46.616Z,2.77
2023-04-04T19:02:16.812Z,2.67
2023-04-04T19:04:46.856Z,2.20
2023-04-04T19:07:22.242Z,2.80
2023-04-04T19:09:54.939Z,2.87
2023-04-04T19:12:24.875Z,2.40
2023-04-04T19:14:54.886Z,2.60
2023-04-04T19:17:24.741Z,2.67
2023-04-04T19:19:55.151Z,2.80
2023-04-04T19:22:24.999Z,2.87
2023-04-04T19:24:57.540Z,2.60
2023-04-04T19:27:27.430Z,2.70
2023-04-04T19:29:57.603Z,3.07
2023-04-04T19:32:30.647Z,2.70
2023-04-04T19:35:01.113Z,2.90
2023-04-04T19:37:30.910Z,2.77
2023-04-04T19:40:03.708Z,3.07
2023-04-04T19:42:33.618Z,3.17
2023-04-04T19:45:04.124Z,3.20
2023-04-04T19:47:34.093Z,2.70
2023-04-04T19:50:04.065Z,3.10
2023-04-04T19:52:34.022Z,3.03
2023-04-04T19:55:12.200Z,3.10
2023-04-04T19:57:42.221Z,3.13
2023-04-04T20:00:19.475Z,3.20
2023-04-04T20:03:01.940Z,3.10
2023-04-04T20:06:04.806Z,3.13
2023-04-04T20:08:39.954Z,3.03
2023-04-04T20:11:13.376Z,2.73
2023-04-04T20:13:44.238Z,2.73
2023-04-04T20:16:15.962Z,3.67
2023-04-04T20:18:47.670Z,2.90
2023-04-04T20:21:19.104Z,3.30
2023-04-04T20:23:54.880Z,3.10
2023-04-04T20:26:55.643Z,3.40
2023-04-04T20:29:28.845Z,3.13
2023-04-04T20:32:00.824Z,2.90
2023-04-04T20:34:42.945Z,3.30
2023-04-04T20:37:16.351Z,3.10
2023-04-04T20:39:51.065Z,3.47
2023-04-04T20:42:40.583Z,3.10
2023-04-04T20:45:41.332Z,3.67
2023-04-04T20:48:11.780Z,3.57
2023-04-04T20:50:48.611Z,3.20
2023-04-04T20:53:27.627Z,3.20
2023-04-04T20:55:58.008Z,3.50
2023-04-04T20:58:34.334Z,3.60
2023-04-04T21:01:04.453Z,2.87
2023-04-04T21:03:37.271Z,3.03
2023-04-04T21:06:16.664Z,3.17
2023-04-04T21:08:48.846Z,3.20
2023-04-04T21:11:27.489Z,3.73
2023-04-04T21:14:00.499Z,3.40
2023-04-04T21:16:30.986Z,3.50
2023-04-04T21:19:02.696Z,3.17
2023-04-04T21:21:32.778Z,2.97
2023-04-04T21:24:03.900Z,3.13
2023-04-04T21:26:36.696Z,2.80
2023-04-04T21:29:11.650Z,3.37
2023-04-04T21:31:43.533Z,3.73
2023-04-04T21:34:16.280Z,3.60
2023-04-04T21:36:47.265Z,3.57
2023-04-04T21:39:18.475Z,3.47
2023-04-04T21:41:48.890Z,4.07
2023-04-04T21:44:21.794Z,3.50
2023-04-04T21:46:51.686Z,3.50
2023-04-04T21:49:21.506Z,3.40
2023-04-04T21:51:51.311Z,3.70
2023-04-04T21:54:21.326Z,4.03
2023-04-04T21:56:51.233Z,4.30
2023-04-04T21:59:23.756Z,3.73
2023-04-04T22:01:53.662Z,3.87
2023-04-04T22:04:23.612Z,3.60
2023-04-04T22:06:53.914Z,3.70
2023-04-04T22:09:25.932Z,4.10
2023-04-04T22:11:59.190Z,3.70
2023-04-04T22:14:33.401Z,3.83
2023-04-04T22:17:03.297Z,4.13
2023-04-04T22:19:43.001Z,3.57
2023-04-04T22:22:13.818Z,4.07
2023-04-04T22:24:44.962Z,3.60
2023-04-04T22:27:15.210Z,3.87
2023-04-04T22:29:47.866Z,4.13
2023-04-04T22:32:17.769Z,3.77
2023-04-04T22:34:47.669Z,3.90
2023-04-04T22:37:19.985Z,4.30
2023-04-04T22:39:50.104Z,4.50
2023-04-04T22:42:20.116Z,4.07
2023-04-04T22:44:52.975Z,4.57
2023-04-04T22:47:23.158Z,4.30
2023-04-04T22:49:53.120Z,3.83
2023-04-04T22:52:23.025Z,4.33
2023-04-04T22:54:52.879Z,4.43
2023-04-04T22:57:25.136Z,4.20
2023-04-04T22:59:57.817Z,4.63
2023-04-04T23:02:27.860Z,4.47
2023-04-04T23:04:58.702Z,4.63
2023-04-04T23:07:29.440Z,3.93
2023-04-04T23:09:59.425Z,4.07
2023-04-04T23:12:32.342Z,4.27
2023-04-04T23:15:05.584Z,4.30
2023-04-04T23:17:36.396Z,4.30
2023-04-04T23:20:09.548Z,4.70
2023-04-04T23:22:40.201Z,4.53
2023-04-04T23:25:10.626Z,4.77
2023-04-04T23:27:40.670Z,4.50
2023-04-04T23:30:14.621Z,4.67
2023-04-04T23:32:44.483Z,4.10
2023-04-04T23:35:14.527Z,4.53
2023-04-04T23:37:44.400Z,4.50
2023-04-04T23:40:15.163Z,4.00
2023-04-04T23:42:45.135Z,4.43
2023-04-04T23:45:19.466Z,4.17
2023-04-04T23:47:49.371Z,4.87
2023-04-04T23:50:20.560Z,4.77
2023-04-04T23:52:50.552Z,3.60
2023-04-04T23:55:20.552Z,4.53
2023-04-04T23:57:50.554Z,4.57
